map of TLS home
TLS - Airport
Location
City:  Toulouse, Midi-Pyrénées, France
Name:Blagnac
ICAO:LFBO
IATA:TLS

Details
Type:Airport (Aerodrome, Airfield)
Use:Public/Civil, International (customs port of entry)
Latitude:43°38'06"N (43.635000)
Longitude:1°22'04"E (1.367778)
Elevation:499 ft (152 m)
Variation:0.58°E (WMM2015 magnetic declination)
0.12° annual change
Runways:2
Longest:11483 × 148 ft (3500 × 45 m), paved

Time
Time Zone:UTC+1 (DST+2)
Local Time:

Weather
METAR:LFBO 151730Z AUTO 26011KT 9999 ///TCU 06/03 Q1008 TEMPO 28018G30KT 4000 SHRA BKN020 BKN040CB
TAF:LFBO 151700Z 1518/1624 28014KT 9999 SCT025
TEMPO 1518/1522 28018G30KT 4000 SHRA BKN020 BKN040CB

Related Locations
Nearby:
Farthest:CHT: 12331 mi / 19845 km
Waitangi [Tuuta], CIT, NZ

Find:

   beyond  
but within

Other Information
Maps:
NOTAMs:
Links:
Sources:

  
flag of France
flag of Midi-Pyrénées
flag of Toulouse
  

Sectional Chart

Flight Planning
at skyvector.com

Satellite Image

Google Maps Satellite view

 

Copyright © 2004-2017 Karl L. Swartz. All rights reserved.
The Great Circle Mapper name and logo are trademarks of the Great Circle Mapper.
All other trademarks mentioned herein belong to their respective owners.
Please see credits for attibutions and further copyright information.

  Follow gcmap on Facebook Follow gcmap on Twitter Follow gcmap on Google+ GCmap on LinkedIn

hCard Microformat

Geo Microformat